Time;durP1;ratioP1;P1;durP2;ratioP2;P2;SDS_P1;SDS_P2;PMS_P1;PMS_P2;Temp;Humidity;BMP_temperature;BMP_pressure;BME280_temperature;BME280_humidity;BME280_pressure;Samples;Min_cycle;Max_cycle;Signal;HPM_P1;HPM_P2
2022/12/27 00:01:08;;;;;;;;;;;9.40;90.70;;;;;;5013168;28;19969;-86
2022/12/27 00:03:34;;;;;;;;;;;9.70;90.60;;;;;;5012862;28;19953;-87
2022/12/27 00:05:59;;;;;;;;;;;9.90;89.70;;;;;;5015022;28;20034;-86
2022/12/27 00:08:25;;;;;;;;;;;10.00;88.90;;;;;;5017064;28;19943;-87
2022/12/27 00:10:50;;;;;;;;;;;9.90;88.30;;;;;;5017013;28;20004;-87
2022/12/27 00:13:16;;;;;;;;;;;9.70;88.70;;;;;;5016757;28;19954;-87
2022/12/27 00:15:42;;;;;;;;;;;9.70;89.10;;;;;;5016734;28;19983;-87
2022/12/27 00:18:07;;;;;;;;;;;9.70;89.10;;;;;;5016791;28;20332;-87
2022/12/27 00:20:33;;;;;;;;;;;9.70;89.00;;;;;;5016834;28;19940;-87
2022/12/27 00:22:59;;;;;;;;;;;9.80;88.80;;;;;;5016495;28;19948;-87
2022/12/27 00:25:24;;;;;;;;;;;9.90;88.00;;;;;;5016555;28;19945;-87
2022/12/27 00:27:50;;;;;;;;;;;10.10;87.90;;;;;;5016694;28;19944;-87
2022/12/27 00:30:15;;;;;;;;;;;10.30;86.60;;;;;;5016592;28;19941;-86
2022/12/27 00:32:41;;;;;;;;;;;10.40;85.10;;;;;;5016304;28;19942;-86
2022/12/27 00:35:07;;;;;;;;;;;10.00;85.60;;;;;;5016502;28;19945;-86
2022/12/27 00:37:32;;;;;;;;;;;9.90;86.60;;;;;;5016471;28;19958;-86
2022/12/27 00:39:58;;;;;;;;;;;9.80;86.90;;;;;;5016520;28;20402;-87
2022/12/27 00:42:23;;;;;;;;;;;9.70;86.80;;;;;;5016439;28;19963;-86
2022/12/27 00:44:49;;;;;;;;;;;9.50;87.00;;;;;;5015614;28;19945;-86
2022/12/27 00:47:14;;;;;;;;;;;9.40;87.60;;;;;;5016173;28;19951;-86
2022/12/27 00:49:40;;;;;;;;;;;9.70;87.90;;;;;;5016314;28;19991;-86
2022/12/27 00:52:05;;;;;;;;;;;9.90;87.60;;;;;;5016173;28;20302;-86
2022/12/27 00:54:31;;;;;;;;;;;9.90;87.40;;;;;;5015809;28;19947;-87
2022/12/27 00:56:56;;;;;;;;;;;9.70;87.40;;;;;;5016325;28;19975;-86
2022/12/27 00:59:22;;;;;;;;;;;9.60;88.10;;;;;;5016133;28;19941;-86
2022/12/27 01:01:47;;;;;;;;;;;9.50;88.60;;;;;;5016049;28;20425;-86
2022/12/27 01:04:14;;;;;;;;;;;9.30;89.30;;;;;;5015671;28;19942;-87
2022/12/27 01:06:40;;;;;;;;;;;9.20;89.70;;;;;;5016188;28;19950;-86
2022/12/27 01:09:05;;;;;;;;;;;9.10;89.90;;;;;;5015907;28;19948;-86
2022/12/27 01:11:31;;;;;;;;;;;9.00;90.20;;;;;;5015878;28;19946;-86
2022/12/27 01:13:58;;;;;;;;;;;9.00;90.40;;;;;;5015595;28;19962;-87
2022/12/27 01:16:24;;;;;;;;;;;8.90;90.60;;;;;;5015527;28;20464;-87
2022/12/27 01:18:50;;;;;;;;;;;8.90;90.80;;;;;;5015358;28;19945;-86
2022/12/27 01:21:16;;;;;;;;;;;9.00;91.00;;;;;;5015680;28;19945;-86
2022/12/27 01:23:42;;;;;;;;;;;8.90;90.00;;;;;;5015625;28;19999;-86
2022/12/27 01:26:12;;;;;;;;;;;8.80;90.20;;;;;;5015547;28;20382;-86
2022/12/27 01:28:38;;;;;;;;;;;8.80;90.70;;;;;;5015579;28;19944;-86
2022/12/27 01:31:04;;;;;;;;;;;8.70;91.40;;;;;;5015718;28;20276;-86
2022/12/27 01:33:30;;;;;;;;;;;8.60;91.60;;;;;;5015432;28;20392;-86
2022/12/27 01:35:55;;;;;;;;;;;8.70;91.60;;;;;;5015366;28;19949;-86
2022/12/27 01:38:21;;;;;;;;;;;8.70;91.60;;;;;;5015286;28;19962;-86
2022/12/27 01:40:46;;;;;;;;;;;8.70;91.60;;;;;;5015301;28;19942;-86
2022/12/27 01:43:18;;;;;;;;;;;8.70;91.60;;;;;;5015609;28;19963;-87
2022/12/27 01:45:45;;;;;;;;;;;8.70;91.50;;;;;;5015226;28;19938;-86
2022/12/27 01:48:15;;;;;;;;;;;8.60;91.40;;;;;;5014991;28;20004;-86
2022/12/27 01:50:40;;;;;;;;;;;8.60;91.20;;;;;;5015119;28;20405;-87
2022/12/27 01:53:11;;;;;;;;;;;8.60;91.30;;;;;;5014728;28;19955;-87
2022/12/27 01:55:57;;;;;;;;;;;8.80;91.30;;;;;;5014939;28;20431;-87
2022/12/27 01:58:41;;;;;;;;;;;8.90;90.90;;;;;;5014971;28;20013;-87
2022/12/27 02:01:09;;;;;;;;;;;9.00;90.30;;;;;;5014898;28;20029;-87
2022/12/27 02:03:39;;;;;;;;;;;9.30;90.10;;;;;;5014632;28;20124;-87
2022/12/27 02:06:05;;;;;;;;;;;9.30;89.20;;;;;;5013603;28;19980;-87
2022/12/27 02:08:53;;;;;;;;;;;9.20;89.00;;;;;;5014779;28;20348;-86
2022/12/27 02:11:49;;;;;;;;;;;9.10;88.80;;;;;;5014739;28;20046;-86
2022/12/27 02:14:06;;;;;;;;;;;9.00;89.10;;;;;;5014368;28;19947;-86
2022/12/27 02:16:32;;;;;;;;;;;9.00;89.30;;;;;;5015005;28;19973;-86
2022/12/27 02:18:57;;;;;;;;;;;8.90;89.10;;;;;;5014244;28;19944;-86
2022/12/27 02:21:43;;;;;;;;;;;8.90;89.00;;;;;;5014587;28;19939;-86
2022/12/27 02:24:08;;;;;;;;;;;8.90;89.80;;;;;;5012345;28;20393;-87
2022/12/27 02:26:36;;;;;;;;;;;8.90;90.20;;;;;;5014458;28;19938;-86
2022/12/27 02:29:05;;;;;;;;;;;8.90;90.00;;;;;;5014531;28;19972;-86
2022/12/27 02:31:49;;;;;;;;;;;9.10;89.90;;;;;;5014416;28;19942;-87
2022/12/27 02:34:21;;;;;;;;;;;9.10;89.50;;;;;;5014029;28;19943;-86
2022/12/27 02:36:48;;;;;;;;;;;9.00;89.50;;;;;;5014067;28;19964;-86
2022/12/27 02:39:15;;;;;;;;;;;8.80;89.80;;;;;;5014191;28;20039;-87
2022/12/27 02:53:04;;;;;;;;;;;8.90;90.30;;;;;;5013670;28;20015;-87
2022/12/27 02:55:41;;;;;;;;;;;9.00;90.00;;;;;;5013875;28;20047;-87
2022/12/27 02:58:06;;;;;;;;;;;8.90;89.90;;;;;;5013857;28;19962;-87
2022/12/27 03:03:27;;;;;;;;;;;9.00;90.10;;;;;;5013938;28;20053;-87
2022/12/27 03:06:38;;;;;;;;;;;8.90;90.30;;;;;;5014112;28;20093;-86
2022/12/27 03:08:47;;;;;;;;;;;8.90;90.00;;;;;;5013587;28;19948;-86
2022/12/27 03:16:30;;;;;;;;;;;9.00;89.90;;;;;;5031954;28;20400;-86
2022/12/27 03:19:00;;;;;;;;;;;8.90;90.00;;;;;;5033384;28;19941;-86
2022/12/27 03:27:07;;;;;;;;;;;8.90;90.30;;;;;;4996624;28;19950;-86
2022/12/27 03:35:06;;;;;;;;;;;9.30;89.10;;;;;;5013723;28;20025;-87
2022/12/27 03:40:19;;;;;;;;;;;9.10;89.40;;;;;;5018238;28;19993;-87
2022/12/27 03:48:24;;;;;;;;;;;8.80;90.70;;;;;;5033004;28;20321;-86
2022/12/27 03:50:53;;;;;;;;;;;8.90;90.80;;;;;;5032690;28;19945;-87
2022/12/27 03:53:28;;;;;;;;;;;9.10;90.70;;;;;;5032927;28;19955;-87
2022/12/27 03:55:54;;;;;;;;;;;9.20;90.30;;;;;;5032867;28;20378;-86
2022/12/27 03:58:20;;;;;;;;;;;9.10;89.60;;;;;;5032806;28;19951;-87
2022/12/27 04:00:45;;;;;;;;;;;9.10;89.40;;;;;;5003288;28;19950;-86
2022/12/27 04:03:11;;;;;;;;;;;9.20;88.90;;;;;;4993573;28;19939;-86
2022/12/27 04:05:36;;;;;;;;;;;9.10;89.00;;;;;;4993537;28;19943;-86
2022/12/27 04:35:24;;;;;;;;;;;8.30;89.80;;;;;;5032641;28;19942;-86
2022/12/27 04:37:49;;;;;;;;;;;8.40;89.90;;;;;;5032472;28;19961;-86
2022/12/27 04:56:40;;;;;;;;;;;8.60;89.30;;;;;;5036126;28;20461;-86
2022/12/27 05:02:02;;;;;;;;;;;8.40;90.30;;;;;;5019670;28;20003;-86
2022/12/27 05:04:28;;;;;;;;;;;8.30;90.60;;;;;;5016016;28;19946;-86
2022/12/27 05:06:53;;;;;;;;;;;8.30;90.70;;;;;;5015978;28;19939;-86
2022/12/27 05:14:47;;;;;;;;;;;7.90;90.30;;;;;;5035455;28;20418;-86
2022/12/27 05:17:13;;;;;;;;;;;7.90;90.60;;;;;;5035507;28;19962;-87
2022/12/27 05:19:38;;;;;;;;;;;7.90;90.60;;;;;;5035527;28;20034;-86
2022/12/27 05:27:32;;;;;;;;;;;7.80;90.60;;;;;;5015891;28;20408;-87
2022/12/27 05:29:57;;;;;;;;;;;7.80;90.80;;;;;;5015565;28;20026;-86
2022/12/27 05:32:23;;;;;;;;;;;7.80;91.40;;;;;;5034700;28;19950;-86
2022/12/27 05:34:48;;;;;;;;;;;7.80;91.60;;;;;;5035213;28;19939;-86
2022/12/27 05:37:14;;;;;;;;;;;7.80;91.80;;;;;;5035093;28;19963;-86
2022/12/27 05:39:39;;;;;;;;;;;7.80;91.90;;;;;;5029378;28;20015;-86
2022/12/27 05:42:05;;;;;;;;;;;7.80;92.00;;;;;;4994441;28;20472;-86
2022/12/27 05:44:31;;;;;;;;;;;7.80;91.70;;;;;;4995699;28;20385;-86
2022/12/27 05:46:56;;;;;;;;;;;7.60;91.80;;;;;;4995675;28;19948;-86
2022/12/27 05:49:22;;;;;;;;;;;7.50;91.80;;;;;;5001213;28;19948;-86
2022/12/27 05:51:47;;;;;;;;;;;7.60;91.80;;;;;;5034846;28;20404;-86
2022/12/27 05:54:13;;;;;;;;;;;7.50;91.70;;;;;;5034963;28;20039;-86
2022/12/27 05:56:38;;;;;;;;;;;7.40;92.00;;;;;;5034760;28;19941;-86
2022/12/27 05:59:04;;;;;;;;;;;7.40;92.00;;;;;;5034308;28;19932;-86
2022/12/27 06:01:29;;;;;;;;;;;7.30;92.20;;;;;;4994066;28;19954;-86
2022/12/27 06:03:55;;;;;;;;;;;7.40;92.30;;;;;;4994916;28;19946;-86
2022/12/27 06:06:21;;;;;;;;;;;7.50;92.30;;;;;;4995301;28;19943;-86
2022/12/27 06:08:46;;;;;;;;;;;7.60;92.20;;;;;;4995228;28;19945;-87
2022/12/27 06:11:13;;;;;;;;;;;7.60;91.70;;;;;;5029987;28;19999;-86
2022/12/27 06:13:39;;;;;;;;;;;7.40;91.80;;;;;;5034475;28;19965;-86
2022/12/27 06:16:06;;;;;;;;;;;7.40;91.40;;;;;;5034286;28;19974;-86
2022/12/27 06:18:32;;;;;;;;;;;7.30;91.30;;;;;;5034326;28;19969;-86
2022/12/27 06:21:01;;;;;;;;;;;7.20;91.40;;;;;;5018857;28;19955;-86
2022/12/27 06:23:27;;;;;;;;;;;7.10;92.00;;;;;;5014514;28;19941;-86
2022/12/27 06:25:52;;;;;;;;;;;7.10;92.50;;;;;;5014492;28;20450;-86
2022/12/27 06:28:18;;;;;;;;;;;7.00;92.40;;;;;;5014457;28;19942;-86
2022/12/27 06:30:43;;;;;;;;;;;6.80;92.40;;;;;;5027326;28;19953;-86
2022/12/27 06:33:09;;;;;;;;;;;6.60;92.70;;;;;;5034389;28;19951;-86
2022/12/27 06:35:34;;;;;;;;;;;6.60;92.80;;;;;;5016322;28;20023;-86
2022/12/27 06:38:00;;;;;;;;;;;6.60;92.90;;;;;;5033953;28;19959;-86
2022/12/27 06:40:25;;;;;;;;;;;6.50;93.10;;;;;;5023176;28;19945;-86
2022/12/27 06:42:51;;;;;;;;;;;6.50;93.40;;;;;;5014160;28;19948;-86
2022/12/27 06:45:16;;;;;;;;;;;6.60;93.60;;;;;;5013914;28;19939;-86
2022/12/27 06:47:42;;;;;;;;;;;6.60;93.50;;;;;;5016690;28;20057;-86
2022/12/27 06:50:08;;;;;;;;;;;6.50;93.10;;;;;;5032892;28;19986;-86
2022/12/27 06:52:33;;;;;;;;;;;6.40;92.80;;;;;;5034129;28;19965;-86
2022/12/27 06:54:59;;;;;;;;;;;6.30;92.80;;;;;;5033282;28;20018;-86
2022/12/27 06:57:24;;;;;;;;;;;6.30;93.20;;;;;;5033761;28;19958;-85
2022/12/27 06:59:50;;;;;;;;;;;6.30;93.40;;;;;;5020970;28;20398;-86
2022/12/27 07:02:15;;;;;;;;;;;6.20;93.50;;;;;;5013865;28;20042;-86
2022/12/27 07:04:41;;;;;;;;;;;6.20;93.60;;;;;;5014095;28;19946;-86
2022/12/27 07:07:06;;;;;;;;;;;6.40;93.60;;;;;;5013828;28;19939;-86
2022/12/27 07:09:32;;;;;;;;;;;6.60;93.50;;;;;;5023439;28;19947;-86
2022/12/27 07:11:57;;;;;;;;;;;6.60;92.50;;;;;;5033464;28;19984;-86
2022/12/27 07:14:23;;;;;;;;;;;6.60;92.00;;;;;;5032974;28;19968;-86
2022/12/27 07:16:48;;;;;;;;;;;6.50;91.80;;;;;;5032888;28;19983;-86
2022/12/27 07:19:14;;;;;;;;;;;6.40;91.60;;;;;;5025763;28;19952;-86
2022/12/27 07:21:40;;;;;;;;;;;6.30;92.00;;;;;;5013626;28;20461;-86
2022/12/27 07:24:05;;;;;;;;;;;6.40;92.30;;;;;;5013338;28;20523;-86
2022/12/27 07:26:31;;;;;;;;;;;6.30;92.00;;;;;;5013422;28;19943;-86
2022/12/27 07:28:58;;;;;;;;;;;6.10;91.90;;;;;;5014435;28;19965;-86
2022/12/27 07:31:26;;;;;;;;;;;5.90;91.20;;;;;;5013417;28;19945;-86
2022/12/27 07:33:51;;;;;;;;;;;5.60;91.30;;;;;;5013763;28;19943;-86
2022/12/27 07:36:18;;;;;;;;;;;5.70;92.10;;;;;;5013417;28;20393;-86
2022/12/27 07:38:44;;;;;;;;;;;5.90;92.50;;;;;;5013245;28;20412;-86
2022/12/27 07:41:10;;;;;;;;;;;6.00;92.70;;;;;;5013395;28;19993;-87
2022/12/27 07:43:36;;;;;;;;;;;6.20;92.70;;;;;;5013626;28;19943;-86
2022/12/27 07:46:12;;;;;;;;;;;6.30;91.90;;;;;;5013252;28;19946;-86
2022/12/27 07:48:38;;;;;;;;;;;6.20;91.30;;;;;;5014756;28;20476;-86
2022/12/27 07:51:04;;;;;;;;;;;6.20;91.40;;;;;;5033031;28;20387;-86
2022/12/27 07:53:30;;;;;;;;;;;6.20;91.60;;;;;;5032811;28;19961;-86
2022/12/27 07:55:56;;;;;;;;;;;6.20;91.90;;;;;;5023555;28;19969;-86
2022/12/27 07:58:21;;;;;;;;;;;6.20;92.30;;;;;;5012787;28;20029;-86
2022/12/27 08:00:48;;;;;;;;;;;6.20;92.30;;;;;;5020500;28;20453;-86
2022/12/27 08:03:13;;;;;;;;;;;6.20;92.40;;;;;;5032788;28;19958;-86
2022/12/27 08:05:46;;;;;;;;;;;6.10;92.60;;;;;;5032750;28;20041;-86
2022/12/27 08:08:13;;;;;;;;;;;6.20;92.80;;;;;;5032808;28;19942;-86
2022/12/27 08:10:38;;;;;;;;;;;6.30;93.30;;;;;;5032567;28;19986;-86
2022/12/27 08:13:04;;;;;;;;;;;6.40;93.60;;;;;;5013053;28;19944;-87
2022/12/27 08:15:29;;;;;;;;;;;6.60;93.80;;;;;;5012913;28;19986;-86
2022/12/27 08:17:55;;;;;;;;;;;6.70;93.60;;;;;;5012947;28;20062;-86
2022/12/27 08:20:20;;;;;;;;;;;6.90;93.40;;;;;;5013034;28;19938;-86
2022/12/27 08:22:46;;;;;;;;;;;7.00;92.50;;;;;;5029875;28;19952;-86
2022/12/27 08:25:11;;;;;;;;;;;7.10;91.50;;;;;;5032641;28;19942;-87
2022/12/27 08:27:37;;;;;;;;;;;7.10;91.40;;;;;;5035499;28;19999;-86
2022/12/27 08:30:03;;;;;;;;;;;7.10;91.20;;;;;;5036423;28;20400;-86
2022/12/27 08:32:28;;;;;;;;;;;7.20;91.40;;;;;;5021746;28;19946;-86
2022/12/27 08:34:54;;;;;;;;;;;7.30;91.40;;;;;;5016529;28;20463;-86
2022/12/27 08:37:19;;;;;;;;;;;7.40;91.40;;;;;;5017503;28;20024;-86
2022/12/27 08:39:45;;;;;;;;;;;7.60;91.30;;;;;;5033320;28;19944;-86
2022/12/27 08:42:13;;;;;;;;;;;7.80;90.80;;;;;;5034240;28;19949;-87
2022/12/27 08:44:39;;;;;;;;;;;7.90;90.20;;;;;;5016371;28;20446;-86
2022/12/27 08:47:04;;;;;;;;;;;8.10;89.80;;;;;;5016289;28;19981;-86
2022/12/27 08:49:30;;;;;;;;;;;8.00;89.70;;;;;;5016358;28;19978;-86
2022/12/27 08:51:55;;;;;;;;;;;8.10;89.00;;;;;;5016204;28;19965;-86
2022/12/27 08:54:21;;;;;;;;;;;8.20;88.20;;;;;;5021150;28;20325;-86
2022/12/27 08:56:46;;;;;;;;;;;8.20;87.50;;;;;;5035561;28;19961;-86
2022/12/27 08:59:12;;;;;;;;;;;8.30;87.00;;;;;;5035832;28;19941;-86
2022/12/27 09:01:38;;;;;;;;;;;8.40;87.00;;;;;;5035740;28;19950;-86
2022/12/27 09:04:03;;;;;;;;;;;8.70;87.00;;;;;;5035765;28;20404;-86
2022/12/27 09:06:29;;;;;;;;;;;9.00;86.20;;;;;;5029591;28;20003;-86
2022/12/27 09:08:54;;;;;;;;;;;9.10;86.00;;;;;;5015906;28;20040;-86
2022/12/27 09:11:22;;;;;;;;;;;9.40;85.00;;;;;;5015842;28;20327;-86
2022/12/27 09:13:47;;;;;;;;;;;9.70;84.10;;;;;;5016108;28;20024;-86
2022/12/27 09:16:17;;;;;;;;;;;9.80;84.30;;;;;;5015426;28;20495;-86
2022/12/27 09:18:43;;;;;;;;;;;9.70;84.50;;;;;;5015693;28;20504;-86
2022/12/27 09:21:10;;;;;;;;;;;9.70;83.50;;;;;;5016821;28;20026;-86
2022/12/27 09:23:36;;;;;;;;;;;9.70;83.80;;;;;;5015675;28;19971;-86
2022/12/27 09:26:05;;;;;;;;;;;9.70;83.40;;;;;;5015652;28;19942;-87
2022/12/27 09:28:31;;;;;;;;;;;9.80;83.20;;;;;;5015592;28;20403;-86
2022/12/27 09:30:56;;;;;;;;;;;9.80;83.50;;;;;;5015594;28;19937;-86
2022/12/27 09:33:22;;;;;;;;;;;10.00;82.80;;;;;;5015538;28;20296;-86
2022/12/27 09:35:47;;;;;;;;;;;10.30;82.20;;;;;;5016542;28;19942;-87
2022/12/27 09:38:13;;;;;;;;;;;10.50;80.80;;;;;;5034349;28;19958;-86
2022/12/27 09:40:38;;;;;;;;;;;10.60;80.40;;;;;;5035133;28;20314;-86
2022/12/27 09:43:06;;;;;;;;;;;10.80;79.90;;;;;;5035107;28;20393;-86
2022/12/27 09:45:39;;;;;;;;;;;10.90;79.30;;;;;;5035095;28;19937;-86
2022/12/27 09:48:27;;;;;;;;;;;11.00;78.70;;;;;;5035014;28;19938;-86
2022/12/27 09:50:58;;;;;;;;;;;10.70;79.60;;;;;;5023834;28;20047;-86
2022/12/27 09:53:29;;;;;;;;;;;10.60;80.10;;;;;;5034803;28;20106;-87
2022/12/27 09:55:56;;;;;;;;;;;10.60;80.20;;;;;;5015521;28;20405;-86
2022/12/27 09:58:31;;;;;;;;;;;10.50;80.90;;;;;;5014877;28;20041;-86
2022/12/27 10:00:57;;;;;;;;;;;10.40;81.40;;;;;;5014953;28;19943;-86
2022/12/27 10:03:24;;;;;;;;;;;10.80;81.00;;;;;;5014939;28;19947;-87
2022/12/27 10:05:54;;;;;;;;;;;11.00;80.40;;;;;;5014951;28;19975;-86
2022/12/27 10:08:35;;;;;;;;;;;11.10;79.80;;;;;;5014893;28;19942;-86
2022/12/27 10:11:34;;;;;;;;;;;11.30;79.50;;;;;;5014734;28;19953;-86
2022/12/27 10:14:04;;;;;;;;;;;11.40;78.90;;;;;;5019944;28;19949;-87
2022/12/27 10:16:47;;;;;;;;;;;11.40;78.70;;;;;;5034175;28;19958;-86
2022/12/27 10:19:16;;;;;;;;;;;11.30;78.90;;;;;;5034384;28;20451;-86
2022/12/27 10:21:50;;;;;;;;;;;11.30;78.90;;;;;;5034393;28;19945;-86
2022/12/27 10:24:19;;;;;;;;;;;11.30;79.20;;;;;;5034374;28;20583;-86
2022/12/27 10:26:45;;;;;;;;;;;11.30;79.50;;;;;;5034538;28;19947;-86
2022/12/27 10:29:21;;;;;;;;;;;11.20;80.20;;;;;;5034149;28;19944;-86
2022/12/27 10:31:46;;;;;;;;;;;11.30;80.90;;;;;;5034185;28;19982;-86
2022/12/27 10:34:13;;;;;;;;;;;11.30;81.10;;;;;;5034102;28;19989;-86
2022/12/27 10:36:39;;;;;;;;;;;11.30;80.80;;;;;;5018474;28;19952;-86
2022/12/27 10:39:23;;;;;;;;;;;11.50;79.80;;;;;;5014194;28;19957;-86
2022/12/27 10:41:56;;;;;;;;;;;11.60;79.10;;;;;;5014505;28;20005;-86
2022/12/27 10:44:22;;;;;;;;;;;11.80;79.00;;;;;;5014226;28;20378;-86
2022/12/27 10:46:49;;;;;;;;;;;11.80;78.90;;;;;;5014202;28;19939;-87
2022/12/27 10:49:18;;;;;;;;;;;11.90;78.70;;;;;;5013682;28;20010;-87
2022/12/27 10:51:44;;;;;;;;;;;11.90;78.10;;;;;;5013992;28;19946;-87
2022/12/27 10:54:14;;;;;;;;;;;12.00;78.60;;;;;;5013891;28;20034;-87
2022/12/27 10:56:40;;;;;;;;;;;12.00;77.50;;;;;;5014264;28;19942;-86
2022/12/27 10:59:10;;;;;;;;;;;12.10;77.20;;;;;;5018614;28;19943;-86
2022/12/27 11:01:35;;;;;;;;;;;12.10;76.70;;;;;;5033663;28;19948;-86
2022/12/27 11:04:09;;;;;;;;;;;12.10;76.80;;;;;;5019389;28;19943;-86
2022/12/27 11:06:34;;;;;;;;;;;12.10;76.10;;;;;;5013774;28;19942;-86
2022/12/27 11:09:16;;;;;;;;;;;12.10;76.20;;;;;;5013794;28;19944;-86
2022/12/27 11:11:42;;;;;;;;;;;12.40;75.70;;;;;;5013659;28;19949;-87
2022/12/27 11:14:14;;;;;;;;;;;12.50;74.60;;;;;;5022532;22;19934;-87
2022/12/27 11:16:40;;;;;;;;;;;12.70;74.20;;;;;;5013195;28;19963;-87
2022/12/27 11:19:05;;;;;;;;;;;12.80;73.30;;;;;;5013408;28;19966;-87
2022/12/27 11:21:36;;;;;;;;;;;12.90;73.40;;;;;;5013541;28;19944;-87
2022/12/27 11:24:01;;;;;;;;;;;13.20;72.70;;;;;;5028725;28;19941;-87
2022/12/27 11:26:32;;;;;;;;;;;13.30;72.00;;;;;;5013130;28;20508;-87
2022/12/27 11:28:59;;;;;;;;;;;13.50;70.70;;;;;;5013569;28;19985;-86
2022/12/27 11:31:28;;;;;;;;;;;13.80;70.30;;;;;;5013462;28;19946;-86
2022/12/27 11:33:55;;;;;;;;;;;13.70;69.20;;;;;;5013454;28;19942;-86
2022/12/27 11:36:30;;;;;;;;;;;13.70;69.20;;;;;;5013440;28;20398;-86
2022/12/27 11:38:56;;;;;;;;;;;13.70;68.40;;;;;;5013362;28;19963;-86
2022/12/27 11:41:36;;;;;;;;;;;13.90;68.60;;;;;;5012893;28;20042;-86
2022/12/27 11:44:13;;;;;;;;;;;14.00;68.00;;;;;;5013912;28;19955;-86
2022/12/27 11:46:41;;;;;;;;;;;14.40;67.20;;;;;;5013279;28;20043;-86
2022/12/27 11:49:11;;;;;;;;;;;15.00;65.30;;;;;;5013261;28;19947;-87
2022/12/27 11:51:37;;;;;;;;;;;15.80;62.50;;;;;;5016789;28;20006;-87
2022/12/27 11:54:03;;;;;;;;;;;16.80;59.30;;;;;;5032498;28;20006;-87
2022/12/27 11:56:29;;;;;;;;;;;17.70;57.10;;;;;;5032993;28;19937;-87
2022/12/27 11:59:20;;;;;;;;;;;18.10;54.70;;;;;;5031166;28;19981;-87
2022/12/27 12:01:49;;;;;;;;;;;18.40;53.80;;;;;;5029065;28;19943;-87
2022/12/27 12:04:33;;;;;;;;;;;18.50;52.10;;;;;;5025623;28;19942;-86
2022/12/27 12:07:26;;;;;;;;;;;18.10;53.60;;;;;;5025541;28;19946;-86
2022/12/27 12:10:03;;;;;;;;;;;17.70;54.50;;;;;;4994050;28;19979;-87
2022/12/27 12:12:31;;;;;;;;;;;17.40;54.90;;;;;;5027720;28;19955;-86
2022/12/27 12:15:15;;;;;;;;;;;17.30;55.70;;;;;;5016827;28;20461;-87
2022/12/27 12:17:55;;;;;;;;;;;18.20;54.00;;;;;;5016696;28;19973;-87
2022/12/27 12:20:20;;;;;;;;;;;18.80;52.20;;;;;;5016768;28;19946;-87
2022/12/27 12:22:58;;;;;;;;;;;19.50;51.00;;;;;;5032193;28;19948;-87
2022/12/27 12:25:27;;;;;;;;;;;20.20;48.80;;;;;;5036242;28;19942;-87
2022/12/27 12:28:12;;;;;;;;;;;19.70;49.10;;;;;;5030348;28;20459;-87
2022/12/27 12:30:43;;;;;;;;;;;19.90;49.30;;;;;;5007975;28;19944;-87
2022/12/27 12:33:09;;;;;;;;;;;20.30;47.10;;;;;;5015592;28;19952;-87
2022/12/27 12:35:45;;;;;;;;;;;20.90;46.10;;;;;;5013510;28;19946;-87
2022/12/27 12:38:10;;;;;;;;;;;20.20;47.10;;;;;;5012316;28;19955;-87
2022/12/27 12:40:38;;;;;;;;;;;20.00;48.40;;;;;;5013880;28;19944;-86
2022/12/27 12:43:07;;;;;;;;;;;19.40;48.90;;;;;;5016371;28;20030;-86
2022/12/27 12:45:42;;;;;;;;;;;18.80;50.40;;;;;;5014506;28;19939;-86
2022/12/27 12:48:20;;;;;;;;;;;18.80;51.80;;;;;;5015353;28;20124;-86
2022/12/27 12:51:04;;;;;;;;;;;18.80;51.00;;;;;;5014297;28;19980;-86
2022/12/27 12:53:39;;;;;;;;;;;18.90;51.70;;;;;;5001833;28;19957;-86
2022/12/27 12:56:22;;;;;;;;;;;19.20;50.80;;;;;;5017862;28;19953;-86
2022/12/27 12:58:55;;;;;;;;;;;18.80;50.90;;;;;;5015110;28;20424;-87
2022/12/27 13:01:21;;;;;;;;;;;19.50;49.40;;;;;;4993242;28;20467;-87
2022/12/27 13:03:49;;;;;;;;;;;20.10;48.00;;;;;;5005561;28;20049;-87
2022/12/27 13:06:22;;;;;;;;;;;20.20;47.60;;;;;;5008189;28;19945;-87
2022/12/27 13:08:54;;;;;;;;;;;20.10;48.00;;;;;;5020812;28;20004;-87
2022/12/27 13:11:22;;;;;;;;;;;20.40;46.50;;;;;;5024833;28;19948;-87
2022/12/27 13:14:06;;;;;;;;;;;20.50;46.70;;;;;;5012840;28;19941;-87
2022/12/27 13:16:35;;;;;;;;;;;20.50;47.80;;;;;;5019637;28;20313;-87
2022/12/27 13:19:03;;;;;;;;;;;21.20;46.00;;;;;;5012010;28;19957;-87
2022/12/27 13:21:29;;;;;;;;;;;22.10;43.90;;;;;;5012330;28;19944;-87
2022/12/27 13:24:06;;;;;;;;;;;22.20;43.00;;;;;;5007371;28;19945;-86
2022/12/27 13:26:37;;;;;;;;;;;21.30;44.30;;;;;;5013066;28;19943;-86
2022/12/27 13:29:24;;;;;;;;;;;20.20;46.70;;;;;;5014626;28;20449;-86
2022/12/27 13:32:04;;;;;;;;;;;19.80;47.70;;;;;;5027017;28;19955;-86
2022/12/27 13:34:40;;;;;;;;;;;19.60;48.90;;;;;;5001340;28;20903;-86
2022/12/27 13:37:05;;;;;;;;;;;19.90;48.30;;;;;;5011578;28;19949;-87
2022/12/27 13:40:00;;;;;;;;;;;20.30;47.40;;;;;;5013527;28;20506;-87
2022/12/27 13:42:29;;;;;;;;;;;21.30;45.50;;;;;;4996562;28;19947;-87
2022/12/27 13:44:54;;;;;;;;;;;22.10;43.10;;;;;;5014403;28;19978;-87
2022/12/27 13:47:26;;;;;;;;;;;21.90;43.10;;;;;;5012075;28;20004;-87
2022/12/27 13:50:10;;;;;;;;;;;21.40;44.10;;;;;;5013892;28;20429;-87
2022/12/27 13:52:47;;;;;;;;;;;21.40;44.80;;;;;;5012860;28;19969;-87
2022/12/27 13:55:13;;;;;;;;;;;22.00;42.80;;;;;;5014144;28;20021;-87
2022/12/27 13:57:57;;;;;;;;;;;21.80;44.10;;;;;;5015056;28;20360;-87
2022/12/27 14:00:25;;;;;;;;;;;22.20;43.50;;;;;;5011289;28;19959;-87
2022/12/27 14:03:09;;;;;;;;;;;21.50;43.90;;;;;;5016003;28;20383;-87
2022/12/27 14:05:52;;;;;;;;;;;21.60;44.30;;;;;;5026890;28;19959;-87
2022/12/27 14:08:20;;;;;;;;;;;21.30;44.80;;;;;;5015775;28;19975;-86
2022/12/27 14:10:47;;;;;;;;;;;20.60;46.40;;;;;;5009429;28;19945;-86
2022/12/27 14:13:17;;;;;;;;;;;20.20;47.70;;;;;;5024401;28;19956;-86
2022/12/27 14:15:45;;;;;;;;;;;19.70;48.90;;;;;;5011244;28;19993;-86
2022/12/27 14:18:35;;;;;;;;;;;20.00;48.80;;;;;;5010237;28;20001;-86
2022/12/27 14:21:03;;;;;;;;;;;20.50;47.30;;;;;;5012949;28;19956;-87
2022/12/27 14:23:32;;;;;;;;;;;21.10;46.10;;;;;;5006326;28;19944;-87
2022/12/27 14:26:00;;;;;;;;;;;21.40;44.70;;;;;;4994835;28;19944;-87
2022/12/27 14:28:44;;;;;;;;;;;21.60;44.80;;;;;;5011308;28;20408;-87
2022/12/27 14:31:12;;;;;;;;;;;21.80;44.60;;;;;;5005186;28;19972;-87
2022/12/27 14:33:56;;;;;;;;;;;21.90;44.00;;;;;;5014971;28;20032;-87
2022/12/27 14:36:40;;;;;;;;;;;21.40;45.20;;;;;;5009293;28;19948;-87
2022/12/27 14:39:24;;;;;;;;;;;21.10;45.70;;;;;;5010001;28;19946;-87
2022/12/27 14:41:52;;;;;;;;;;;21.00;45.70;;;;;;5009395;28;20031;-87
2022/12/27 14:44:26;;;;;;;;;;;19.70;47.90;;;;;;5011067;28;20007;-87
2022/12/27 14:47:11;;;;;;;;;;;19.80;48.40;;;;;;5009708;28;19955;-87
2022/12/27 14:49:49;;;;;;;;;;;19.90;47.80;;;;;;5009998;28;19942;-87
2022/12/27 14:52:14;;;;;;;;;;;19.50;48.60;;;;;;5003878;28;19972;-86
2022/12/27 14:55:16;;;;;;;;;;;18.90;50.30;;;;;;5004924;28;19941;-86
2022/12/27 14:57:50;;;;;;;;;;;18.50;51.90;;;;;;4970125;28;19958;-86
2022/12/27 15:00:19;;;;;;;;;;;17.90;53.80;;;;;;5001883;28;19961;-86
2022/12/27 15:02:51;;;;;;;;;;;17.40;54.60;;;;;;5007920;28;19943;-86
2022/12/27 15:05:36;;;;;;;;;;;17.20;55.20;;;;;;5008818;28;19953;-86
2022/12/27 15:08:06;;;;;;;;;;;16.80;56.40;;;;;;5011227;28;20014;-87
2022/12/27 15:10:44;;;;;;;;;;;16.50;57.50;;;;;;5004591;28;19952;-86
2022/12/27 15:13:18;;;;;;;;;;;16.30;58.40;;;;;;5019843;28;20002;-87
2022/12/27 15:15:55;;;;;;;;;;;15.90;59.60;;;;;;5004870;28;19968;-86
2022/12/27 15:18:21;;;;;;;;;;;15.70;61.50;;;;;;5011113;28;20003;-86
2022/12/27 15:20:49;;;;;;;;;;;15.30;62.30;;;;;;5013606;28;19942;-86
2022/12/27 15:23:33;;;;;;;;;;;15.00;63.20;;;;;;5008169;28;19953;-86
2022/12/27 15:26:19;;;;;;;;;;;14.80;63.40;;;;;;4993967;28;19941;-87
2022/12/27 15:29:00;;;;;;;;;;;14.50;64.90;;;;;;5006236;28;19960;-86
2022/12/27 15:31:44;;;;;;;;;;;14.00;66.70;;;;;;5007761;28;19950;-86
2022/12/27 15:34:27;;;;;;;;;;;13.70;67.70;;;;;;5006998;28;19962;-86
2022/12/27 15:36:53;;;;;;;;;;;13.20;69.70;;;;;;5002972;28;20343;-86
2022/12/27 15:39:34;;;;;;;;;;;12.80;71.40;;;;;;5008303;28;19948;-86
2022/12/27 15:42:02;;;;;;;;;;;12.40;72.80;;;;;;5018797;28;19943;-86
2022/12/27 15:44:46;;;;;;;;;;;12.10;73.80;;;;;;5011900;28;20004;-86
2022/12/27 15:47:21;;;;;;;;;;;11.90;74.70;;;;;;5012925;28;19941;-86
2022/12/27 15:49:46;;;;;;;;;;;11.70;75.40;;;;;;5002979;28;20035;-86
2022/12/27 15:52:21;;;;;;;;;;;11.60;76.10;;;;;;5012103;28;20052;-86
2022/12/27 15:54:52;;;;;;;;;;;11.40;76.70;;;;;;5006463;28;20364;-86
2022/12/27 15:57:27;;;;;;;;;;;11.20;77.70;;;;;;5009374;28;20040;-86
2022/12/27 15:59:54;;;;;;;;;;;11.00;78.70;;;;;;4998494;28;19940;-87
2022/12/27 16:02:24;;;;;;;;;;;10.80;79.50;;;;;;5008667;28;20446;-87
2022/12/27 16:04:52;;;;;;;;;;;10.80;80.60;;;;;;5004446;28;19974;-87
2022/12/27 16:07:37;;;;;;;;;;;10.60;81.20;;;;;;5010262;28;19979;-86
2022/12/27 16:10:37;;;;;;;;;;;10.80;80.90;;;;;;5003348;28;20500;-87
2022/12/27 16:13:03;;;;;;;;;;;10.80;80.50;;;;;;4969079;28;20054;-87
2022/12/27 16:15:46;;;;;;;;;;;10.80;80.40;;;;;;4990173;28;20472;-87